sensor_id;sensor_type;location;lat;lon;timestamp;temperature;humidity
5938;DHT22;2994;51.220;4.412;2023-07-08T00:01:18;25.82;37.90
5938;DHT22;2994;51.220;4.412;2023-07-08T00:03:43;25.79;37.20
5938;DHT22;2994;51.220;4.412;2023-07-08T00:06:21;25.77;37.75
5938;DHT22;2994;51.220;4.412;2023-07-08T00:08:47;25.77;38.46
5938;DHT22;2994;51.220;4.412;2023-07-08T00:11:14;25.71;38.10
5938;DHT22;2994;51.220;4.412;2023-07-08T00:13:39;25.68;37.57
5938;DHT22;2994;51.220;4.412;2023-07-08T00:16:09;25.63;38.91
5938;DHT22;2994;51.220;4.412;2023-07-08T00:18:36;25.62;37.43
5938;DHT22;2994;51.220;4.412;2023-07-08T00:21:01;25.62;38.03
5938;DHT22;2994;51.220;4.412;2023-07-08T00:23:27;25.57;38.08
5938;DHT22;2994;51.220;4.412;2023-07-08T00:25:52;25.54;38.75
5938;DHT22;2994;51.220;4.412;2023-07-08T00:28:19;25.52;38.24
5938;DHT22;2994;51.220;4.412;2023-07-08T00:30:46;25.49;39.03
5938;DHT22;2994;51.220;4.412;2023-07-08T00:33:11;25.46;38.33
5938;DHT22;2994;51.220;4.412;2023-07-08T00:35:44;25.42;38.79
5938;DHT22;2994;51.220;4.412;2023-07-08T00:38:27;25.39;38.10
5938;DHT22;2994;51.220;4.412;2023-07-08T00:43:38;25.32;38.33
5938;DHT22;2994;51.220;4.412;2023-07-08T00:46:28;25.29;38.40
5938;DHT22;2994;51.220;4.412;2023-07-08T00:51:33;25.24;39.01
5938;DHT22;2994;51.220;4.412;2023-07-08T00:53:59;25.22;39.25
5938;DHT22;2994;51.220;4.412;2023-07-08T00:56:37;25.21;39.76
5938;DHT22;2994;51.220;4.412;2023-07-08T00:59:07;25.18;40.26
5938;DHT22;2994;51.220;4.412;2023-07-08T01:01:37;25.14;39.81
5938;DHT22;2994;51.220;4.412;2023-07-08T01:04:11;25.14;39.99
5938;DHT22;2994;51.220;4.412;2023-07-08T01:06:40;25.09;39.85
5938;DHT22;2994;51.220;4.412;2023-07-08T01:09:08;25.07;39.61
5938;DHT22;2994;51.220;4.412;2023-07-08T01:11:37;25.05;39.65
5938;DHT22;2994;51.220;4.412;2023-07-08T01:14:04;25.02;40.60
5938;DHT22;2994;51.220;4.412;2023-07-08T01:16:32;24.99;40.75
5938;DHT22;2994;51.220;4.412;2023-07-08T01:19:00;24.97;40.03
5938;DHT22;2994;51.220;4.412;2023-07-08T01:24:01;24.93;40.11
5938;DHT22;2994;51.220;4.412;2023-07-08T01:26:27;24.90;40.91
5938;DHT22;2994;51.220;4.412;2023-07-08T01:28:54;24.88;40.66
5938;DHT22;2994;51.220;4.412;2023-07-08T01:31:22;24.85;40.78
5938;DHT22;2994;51.220;4.412;2023-07-08T01:33:48;24.84;40.64
5938;DHT22;2994;51.220;4.412;2023-07-08T01:36:13;24.83;40.87
5938;DHT22;2994;51.220;4.412;2023-07-08T01:38:39;24.79;41.36
5938;DHT22;2994;51.220;4.412;2023-07-08T01:41:11;24.77;41.29
5938;DHT22;2994;51.220;4.412;2023-07-08T01:43:37;24.75;41.39
5938;DHT22;2994;51.220;4.412;2023-07-08T01:46:03;24.73;41.38
5938;DHT22;2994;51.220;4.412;2023-07-08T01:48:33;24.71;41.73
5938;DHT22;2994;51.220;4.412;2023-07-08T01:51:04;24.66;41.38
5938;DHT22;2994;51.220;4.412;2023-07-08T01:53:42;24.65;42.00
5938;DHT22;2994;51.220;4.412;2023-07-08T01:56:09;24.59;41.13
5938;DHT22;2994;51.220;4.412;2023-07-08T01:58:35;24.58;41.44
5938;DHT22;2994;51.220;4.412;2023-07-08T02:01:01;24.57;41.92
5938;DHT22;2994;51.220;4.412;2023-07-08T02:03:27;24.55;42.07
5938;DHT22;2994;51.220;4.412;2023-07-08T02:05:53;24.53;41.56
5938;DHT22;2994;51.220;4.412;2023-07-08T02:08:19;24.49;41.73
5938;DHT22;2994;51.220;4.412;2023-07-08T02:10:49;24.47;41.74
5938;DHT22;2994;51.220;4.412;2023-07-08T02:13:14;24.47;41.77
5938;DHT22;2994;51.220;4.412;2023-07-08T02:15:40;24.45;42.49
5938;DHT22;2994;51.220;4.412;2023-07-08T02:18:05;24.43;42.20
5938;DHT22;2994;51.220;4.412;2023-07-08T02:20:30;24.41;42.00
5938;DHT22;2994;51.220;4.412;2023-07-08T02:22:56;24.38;42.16
5938;DHT22;2994;51.220;4.412;2023-07-08T02:25:21;24.36;42.53
5938;DHT22;2994;51.220;4.412;2023-07-08T02:27:47;24.32;42.15
5938;DHT22;2994;51.220;4.412;2023-07-08T02:30:12;24.32;43.00
5938;DHT22;2994;51.220;4.412;2023-07-08T02:32:37;24.28;42.54
5938;DHT22;2994;51.220;4.412;2023-07-08T02:35:05;24.25;42.55
5938;DHT22;2994;51.220;4.412;2023-07-08T02:37:31;24.23;42.36
5938;DHT22;2994;51.220;4.412;2023-07-08T02:39:57;24.19;42.52
5938;DHT22;2994;51.220;4.412;2023-07-08T02:42:23;24.17;42.60
5938;DHT22;2994;51.220;4.412;2023-07-08T02:44:48;24.15;43.26
5938;DHT22;2994;51.220;4.412;2023-07-08T02:47:14;24.14;43.61
5938;DHT22;2994;51.220;4.412;2023-07-08T02:49:39;24.12;43.52
5938;DHT22;2994;51.220;4.412;2023-07-08T02:52:05;24.11;43.02
5938;DHT22;2994;51.220;4.412;2023-07-08T02:54:30;24.08;43.07
5938;DHT22;2994;51.220;4.412;2023-07-08T02:56:56;24.03;43.08
5938;DHT22;2994;51.220;4.412;2023-07-08T02:59:21;24.01;42.75
5938;DHT22;2994;51.220;4.412;2023-07-08T03:01:47;24.01;43.22
5938;DHT22;2994;51.220;4.412;2023-07-08T03:04:13;23.99;43.49
5938;DHT22;2994;51.220;4.412;2023-07-08T03:06:43;23.99;44.06
5938;DHT22;2994;51.220;4.412;2023-07-08T03:09:10;23.98;43.37
5938;DHT22;2994;51.220;4.412;2023-07-08T03:11:36;23.96;43.45
5938;DHT22;2994;51.220;4.412;2023-07-08T03:14:02;23.95;44.00
5938;DHT22;2994;51.220;4.412;2023-07-08T03:16:27;23.94;44.95
5938;DHT22;2994;51.220;4.412;2023-07-08T03:18:53;23.90;44.71
5938;DHT22;2994;51.220;4.412;2023-07-08T03:21:18;23.88;44.56
5938;DHT22;2994;51.220;4.412;2023-07-08T03:23:44;23.85;44.15
5938;DHT22;2994;51.220;4.412;2023-07-08T03:26:25;23.81;44.18
5938;DHT22;2994;51.220;4.412;2023-07-08T03:28:51;23.79;44.25
5938;DHT22;2994;51.220;4.412;2023-07-08T03:31:17;23.75;44.67
5938;DHT22;2994;51.220;4.412;2023-07-08T03:33:43;23.74;44.67
5938;DHT22;2994;51.220;4.412;2023-07-08T03:36:15;23.71;44.76
5938;DHT22;2994;51.220;4.412;2023-07-08T03:38:55;23.70;44.84
5938;DHT22;2994;51.220;4.412;2023-07-08T03:41:21;23.67;44.70
5938;DHT22;2994;51.220;4.412;2023-07-08T03:43:47;23.66;44.79
5938;DHT22;2994;51.220;4.412;2023-07-08T03:46:15;23.59;44.76
5938;DHT22;2994;51.220;4.412;2023-07-08T03:48:41;23.59;44.69
5938;DHT22;2994;51.220;4.412;2023-07-08T03:51:11;23.58;44.90
5938;DHT22;2994;51.220;4.412;2023-07-08T03:53:39;23.49;45.61
5938;DHT22;2994;51.220;4.412;2023-07-08T03:56:04;23.47;45.15
5938;DHT22;2994;51.220;4.412;2023-07-08T03:58:30;23.47;45.24
5938;DHT22;2994;51.220;4.412;2023-07-08T04:00:55;23.47;45.38
5938;DHT22;2994;51.220;4.412;2023-07-08T04:03:20;23.47;45.45
5938;DHT22;2994;51.220;4.412;2023-07-08T04:05:46;23.45;46.18
5938;DHT22;2994;51.220;4.412;2023-07-08T04:08:11;23.45;46.02
5938;DHT22;2994;51.220;4.412;2023-07-08T04:10:37;23.47;45.72
5938;DHT22;2994;51.220;4.412;2023-07-08T04:13:02;23.47;46.02
5938;DHT22;2994;51.220;4.412;2023-07-08T04:15:28;23.45;45.90
5938;DHT22;2994;51.220;4.412;2023-07-08T04:17:54;23.44;45.69
5938;DHT22;2994;51.220;4.412;2023-07-08T04:20:21;23.43;45.73
5938;DHT22;2994;51.220;4.412;2023-07-08T04:22:46;23.41;46.41
5938;DHT22;2994;51.220;4.412;2023-07-08T04:25:12;23.40;45.99
5938;DHT22;2994;51.220;4.412;2023-07-08T04:27:39;23.41;46.00
5938;DHT22;2994;51.220;4.412;2023-07-08T04:30:06;23.39;46.07
5938;DHT22;2994;51.220;4.412;2023-07-08T04:32:32;23.38;46.24
5938;DHT22;2994;51.220;4.412;2023-07-08T04:34:57;23.38;46.25
5938;DHT22;2994;51.220;4.412;2023-07-08T04:37:23;23.35;46.53
5938;DHT22;2994;51.220;4.412;2023-07-08T04:39:49;23.36;46.14
5938;DHT22;2994;51.220;4.412;2023-07-08T04:42:14;23.37;46.04
5938;DHT22;2994;51.220;4.412;2023-07-08T04:44:42;23.36;46.00
5938;DHT22;2994;51.220;4.412;2023-07-08T04:47:08;23.35;45.94
5938;DHT22;2994;51.220;4.412;2023-07-08T04:49:34;23.38;46.27
5938;DHT22;2994;51.220;4.412;2023-07-08T04:52:01;23.37;46.66
5938;DHT22;2994;51.220;4.412;2023-07-08T04:54:27;23.35;46.76
5938;DHT22;2994;51.220;4.412;2023-07-08T04:56:53;23.36;47.01
5938;DHT22;2994;51.220;4.412;2023-07-08T04:59:22;23.39;46.81
5938;DHT22;2994;51.220;4.412;2023-07-08T05:01:47;23.40;46.90
5938;DHT22;2994;51.220;4.412;2023-07-08T05:04:15;23.41;47.03
5938;DHT22;2994;51.220;4.412;2023-07-08T05:06:41;23.42;47.28
5938;DHT22;2994;51.220;4.412;2023-07-08T05:09:07;23.41;47.91
5938;DHT22;2994;51.220;4.412;2023-07-08T05:11:33;23.42;47.41
5938;DHT22;2994;51.220;4.412;2023-07-08T05:13:59;23.43;46.82
5938;DHT22;2994;51.220;4.412;2023-07-08T05:16:25;23.44;47.04
5938;DHT22;2994;51.220;4.412;2023-07-08T05:18:50;23.44;46.74
5938;DHT22;2994;51.220;4.412;2023-07-08T05:21:18;23.46;47.19
5938;DHT22;2994;51.220;4.412;2023-07-08T05:23:44;23.45;46.85
5938;DHT22;2994;51.220;4.412;2023-07-08T05:26:10;23.46;47.22
5938;DHT22;2994;51.220;4.412;2023-07-08T05:28:35;23.45;46.99
5938;DHT22;2994;51.220;4.412;2023-07-08T05:31:01;23.47;46.75
5938;DHT22;2994;51.220;4.412;2023-07-08T05:33:28;23.49;46.79
5938;DHT22;2994;51.220;4.412;2023-07-08T05:35:54;23.50;47.15
5938;DHT22;2994;51.220;4.412;2023-07-08T05:38:20;23.52;47.54
5938;DHT22;2994;51.220;4.412;2023-07-08T05:40:50;23.53;48.02
5938;DHT22;2994;51.220;4.412;2023-07-08T05:43:17;23.57;46.86
5938;DHT22;2994;51.220;4.412;2023-07-08T05:45:43;23.56;47.42
5938;DHT22;2994;51.220;4.412;2023-07-08T05:48:08;23.58;48.37
5938;DHT22;2994;51.220;4.412;2023-07-08T05:50:34;23.59;47.46
5938;DHT22;2994;51.220;4.412;2023-07-08T05:52:59;23.59;47.19
5938;DHT22;2994;51.220;4.412;2023-07-08T05:55:25;23.58;47.17
5938;DHT22;2994;51.220;4.412;2023-07-08T05:57:50;23.64;47.09
5938;DHT22;2994;51.220;4.412;2023-07-08T06:00:16;23.66;46.77
5938;DHT22;2994;51.220;4.412;2023-07-08T06:02:41;23.71;47.02
5938;DHT22;2994;51.220;4.412;2023-07-08T06:05:07;23.69;46.61
5938;DHT22;2994;51.220;4.412;2023-07-08T06:07:32;23.74;46.40
5938;DHT22;2994;51.220;4.412;2023-07-08T06:09:58;23.77;46.25
5938;DHT22;2994;51.220;4.412;2023-07-08T06:12:24;23.83;46.50
5938;DHT22;2994;51.220;4.412;2023-07-08T06:14:50;23.71;46.85
5938;DHT22;2994;51.220;4.412;2023-07-08T06:17:16;23.82;46.48
5938;DHT22;2994;51.220;4.412;2023-07-08T06:19:42;23.85;47.10
5938;DHT22;2994;51.220;4.412;2023-07-08T06:22:08;23.87;46.57
5938;DHT22;2994;51.220;4.412;2023-07-08T06:24:33;23.95;46.76
5938;DHT22;2994;51.220;4.412;2023-07-08T06:26:59;23.99;46.92
5938;DHT22;2994;51.220;4.412;2023-07-08T06:29:24;24.03;47.54
5938;DHT22;2994;51.220;4.412;2023-07-08T06:31:50;24.06;46.89
5938;DHT22;2994;51.220;4.412;2023-07-08T06:34:16;24.12;46.97
5938;DHT22;2994;51.220;4.412;2023-07-08T06:36:41;24.13;47.76
5938;DHT22;2994;51.220;4.412;2023-07-08T06:39:07;24.18;48.56
5938;DHT22;2994;51.220;4.412;2023-07-08T06:41:34;24.17;46.86
5938;DHT22;2994;51.220;4.412;2023-07-08T06:43:59;24.21;46.96
5938;DHT22;2994;51.220;4.412;2023-07-08T06:46:25;24.26;47.96
5938;DHT22;2994;51.220;4.412;2023-07-08T06:48:50;24.13;48.73
5938;DHT22;2994;51.220;4.412;2023-07-08T06:51:16;24.26;49.61
5938;DHT22;2994;51.220;4.412;2023-07-08T06:53:41;24.31;50.22
5938;DHT22;2994;51.220;4.412;2023-07-08T06:56:07;24.36;48.82
5938;DHT22;2994;51.220;4.412;2023-07-08T06:58:33;24.06;48.70
5938;DHT22;2994;51.220;4.412;2023-07-08T07:00:59;24.17;48.52
5938;DHT22;2994;51.220;4.412;2023-07-08T07:03:25;24.09;48.82
5938;DHT22;2994;51.220;4.412;2023-07-08T07:05:50;24.43;48.91
5938;DHT22;2994;51.220;4.412;2023-07-08T07:08:16;24.33;48.82
5938;DHT22;2994;51.220;4.412;2023-07-08T07:10:41;24.58;48.15
5938;DHT22;2994;51.220;4.412;2023-07-08T07:13:07;24.66;48.69
5938;DHT22;2994;51.220;4.412;2023-07-08T07:15:32;24.77;46.93
5938;DHT22;2994;51.220;4.412;2023-07-08T07:17:58;24.83;46.50
5938;DHT22;2994;51.220;4.412;2023-07-08T07:20:24;24.95;47.61
5938;DHT22;2994;51.220;4.412;2023-07-08T07:22:50;25.04;48.66
5938;DHT22;2994;51.220;4.412;2023-07-08T07:25:16;25.09;49.79
5938;DHT22;2994;51.220;4.412;2023-07-08T07:27:42;25.14;50.31
5938;DHT22;2994;51.220;4.412;2023-07-08T07:30:08;25.18;49.44
5938;DHT22;2994;51.220;4.412;2023-07-08T07:32:37;25.19;50.97
5938;DHT22;2994;51.220;4.412;2023-07-08T07:35:03;25.22;50.08
5938;DHT22;2994;51.220;4.412;2023-07-08T07:37:29;25.29;50.92
5938;DHT22;2994;51.220;4.412;2023-07-08T07:39:54;25.12;48.92
5938;DHT22;2994;51.220;4.412;2023-07-08T07:42:20;25.29;47.73
5938;DHT22;2994;51.220;4.412;2023-07-08T07:44:46;25.47;48.06
5938;DHT22;2994;51.220;4.412;2023-07-08T07:47:11;25.56;47.73
5938;DHT22;2994;51.220;4.412;2023-07-08T07:49:37;25.62;49.46
5938;DHT22;2994;51.220;4.412;2023-07-08T07:52:03;25.68;49.56
5938;DHT22;2994;51.220;4.412;2023-07-08T07:54:29;25.60;48.23
5938;DHT22;2994;51.220;4.412;2023-07-08T07:56:54;25.78;48.47
5938;DHT22;2994;51.220;4.412;2023-07-08T07:59:20;25.84;47.47
5938;DHT22;2994;51.220;4.412;2023-07-08T08:01:45;25.94;45.74
5938;DHT22;2994;51.220;4.412;2023-07-08T08:04:11;26.02;45.12
5938;DHT22;2994;51.220;4.412;2023-07-08T08:06:37;26.13;44.74
5938;DHT22;2994;51.220;4.412;2023-07-08T08:09:03;26.24;43.83
5938;DHT22;2994;51.220;4.412;2023-07-08T08:11:29;26.18;44.62
5938;DHT22;2994;51.220;4.412;2023-07-08T08:13:56;26.37;44.62
5938;DHT22;2994;51.220;4.412;2023-07-08T08:16:22;26.63;43.77
5938;DHT22;2994;51.220;4.412;2023-07-08T08:18:47;26.71;45.16
5938;DHT22;2994;51.220;4.412;2023-07-08T08:21:13;26.67;44.12
5938;DHT22;2994;51.220;4.412;2023-07-08T08:23:39;26.72;44.11
5938;DHT22;2994;51.220;4.412;2023-07-08T08:26:04;26.86;44.65
5938;DHT22;2994;51.220;4.412;2023-07-08T08:28:30;26.97;44.35
5938;DHT22;2994;51.220;4.412;2023-07-08T08:30:55;27.23;43.85
5938;DHT22;2994;51.220;4.412;2023-07-08T08:33:20;27.28;43.78
5938;DHT22;2994;51.220;4.412;2023-07-08T08:35:46;27.37;44.24
5938;DHT22;2994;51.220;4.412;2023-07-08T08:38:12;27.41;43.05
5938;DHT22;2994;51.220;4.412;2023-07-08T08:40:39;27.49;42.10
5938;DHT22;2994;51.220;4.412;2023-07-08T08:43:10;27.65;41.78
5938;DHT22;2994;51.220;4.412;2023-07-08T08:48:21;27.55;43.60
5938;DHT22;2994;51.220;4.412;2023-07-08T08:51:04;27.81;41.86
5938;DHT22;2994;51.220;4.412;2023-07-08T08:53:31;27.99;41.71
5938;DHT22;2994;51.220;4.412;2023-07-08T08:56:03;27.97;41.48
5938;DHT22;2994;51.220;4.412;2023-07-08T08:58:54;28.17;39.91
5938;DHT22;2994;51.220;4.412;2023-07-08T09:01:22;28.25;40.55
5938;DHT22;2994;51.220;4.412;2023-07-08T09:03:54;28.26;42.26
5938;DHT22;2994;51.220;4.412;2023-07-08T09:06:24;28.20;39.02
5938;DHT22;2994;51.220;4.412;2023-07-08T09:08:51;28.18;39.91
5938;DHT22;2994;51.220;4.412;2023-07-08T09:11:44;28.33;38.13
5938;DHT22;2994;51.220;4.412;2023-07-08T09:14:33;28.44;38.59
5938;DHT22;2994;51.220;4.412;2023-07-08T09:17:20;28.55;38.75
5938;DHT22;2994;51.220;4.412;2023-07-08T09:19:52;28.60;39.06
5938;DHT22;2994;51.220;4.412;2023-07-08T09:22:28;28.61;39.47
5938;DHT22;2994;51.220;4.412;2023-07-08T09:28:00;29.05;38.16
5938;DHT22;2994;51.220;4.412;2023-07-08T09:30:26;29.26;37.15
5938;DHT22;2994;51.220;4.412;2023-07-08T09:32:54;29.33;37.21
5938;DHT22;2994;51.220;4.412;2023-07-08T09:35:26;29.48;36.79
5938;DHT22;2994;51.220;4.412;2023-07-08T09:37:52;29.53;37.26
5938;DHT22;2994;51.220;4.412;2023-07-08T09:40:20;29.65;36.55
5938;DHT22;2994;51.220;4.412;2023-07-08T09:42:51;29.75;37.24
5938;DHT22;2994;51.220;4.412;2023-07-08T09:45:21;29.63;36.47
5938;DHT22;2994;51.220;4.412;2023-07-08T09:47:47;29.94;35.11
5938;DHT22;2994;51.220;4.412;2023-07-08T09:50:28;29.86;34.17
5938;DHT22;2994;51.220;4.412;2023-07-08T09:52:56;29.96;34.33
5938;DHT22;2994;51.220;4.412;2023-07-08T09:55:30;30.05;34.53
5938;DHT22;2994;51.220;4.412;2023-07-08T09:57:56;29.80;33.36
5938;DHT22;2994;51.220;4.412;2023-07-08T10:00:30;30.10;32.61
5938;DHT22;2994;51.220;4.412;2023-07-08T10:03:03;30.41;32.67
5938;DHT22;2994;51.220;4.412;2023-07-08T10:05:36;30.55;32.49
5938;DHT22;2994;51.220;4.412;2023-07-08T10:08:16;30.45;32.99
5938;DHT22;2994;51.220;4.412;2023-07-08T10:10:42;30.70;33.60
5938;DHT22;2994;51.220;4.412;2023-07-08T10:15:57;30.86;33.04
5938;DHT22;2994;51.220;4.412;2023-07-08T10:18:28;30.87;32.71
5938;DHT22;2994;51.220;4.412;2023-07-08T10:23:38;31.07;30.65
5938;DHT22;2994;51.220;4.412;2023-07-08T10:26:32;31.10;31.66
5938;DHT22;2994;51.220;4.412;2023-07-08T10:34:49;31.27;29.57
5938;DHT22;2994;51.220;4.412;2023-07-08T10:45:29;31.43;30.66
5938;DHT22;2994;51.220;4.412;2023-07-08T10:48:19;31.60;30.24
5938;DHT22;2994;51.220;4.412;2023-07-08T10:51:21;31.56;30.05
5938;DHT22;2994;51.220;4.412;2023-07-08T10:56:55;31.89;29.31
5938;DHT22;2994;51.220;4.412;2023-07-08T11:05:10;31.93;30.25
5938;DHT22;2994;51.220;4.412;2023-07-08T11:07:45;32.09;28.84
5938;DHT22;2994;51.220;4.412;2023-07-08T11:10:17;32.32;27.45
5938;DHT22;2994;51.220;4.412;2023-07-08T11:12:47;32.29;29.87
5938;DHT22;2994;51.220;4.412;2023-07-08T11:17:49;32.24;29.00
5938;DHT22;2994;51.220;4.412;2023-07-08T11:22:53;32.48;30.41
5938;DHT22;2994;51.220;4.412;2023-07-08T11:25:24;32.63;29.35
5938;DHT22;2994;51.220;4.412;2023-07-08T11:27:55;32.52;31.33
5938;DHT22;2994;51.220;4.412;2023-07-08T11:30:23;32.75;28.16
5938;DHT22;2994;51.220;4.412;2023-07-08T11:32:57;32.71;27.23
5938;DHT22;2994;51.220;4.412;2023-07-08T11:37:58;33.08;25.75
5938;DHT22;2994;51.220;4.412;2023-07-08T11:40:24;33.09;23.91
5938;DHT22;2994;51.220;4.412;2023-07-08T11:42:52;33.14;22.11
5938;DHT22;2994;51.220;4.412;2023-07-08T11:47:48;33.23;23.48
5938;DHT22;2994;51.220;4.412;2023-07-08T11:50:28;33.51;22.47
5938;DHT22;2994;51.220;4.412;2023-07-08T11:53:00;33.50;22.60
5938;DHT22;2994;51.220;4.412;2023-07-08T11:55:46;33.73;22.29
5938;DHT22;2994;51.220;4.412;2023-07-08T11:58:32;33.67;24.81
5938;DHT22;2994;51.220;4.412;2023-07-08T12:01:04;33.70;25.39
5938;DHT22;2994;51.220;4.412;2023-07-08T12:03:40;33.82;26.22
5938;DHT22;2994;51.220;4.412;2023-07-08T12:08:54;33.90;26.45
5938;DHT22;2994;51.220;4.412;2023-07-08T12:11:26;34.02;25.64
5938;DHT22;2994;51.220;4.412;2023-07-08T12:13:54;34.26;23.62
5938;DHT22;2994;51.220;4.412;2023-07-08T12:16:21;34.44;23.15
5938;DHT22;2994;51.220;4.412;2023-07-08T12:18:48;34.68;22.18
5938;DHT22;2994;51.220;4.412;2023-07-08T12:21:15;34.67;21.35
5938;DHT22;2994;51.220;4.412;2023-07-08T12:23:45;34.60;22.82
5938;DHT22;2994;51.220;4.412;2023-07-08T12:26:11;34.61;22.95
5938;DHT22;2994;51.220;4.412;2023-07-08T12:28:38;35.20;22.26
5938;DHT22;2994;51.220;4.412;2023-07-08T12:31:17;35.23;22.56
5938;DHT22;2994;51.220;4.412;2023-07-08T12:33:44;35.44;22.29
5938;DHT22;2994;51.220;4.412;2023-07-08T12:36:13;35.34;22.79
5938;DHT22;2994;51.220;4.412;2023-07-08T12:38:42;35.64;22.43
5938;DHT22;2994;51.220;4.412;2023-07-08T12:41:12;35.38;24.30
5938;DHT22;2994;51.220;4.412;2023-07-08T12:43:39;35.30;24.95
5938;DHT22;2994;51.220;4.412;2023-07-08T12:46:05;35.16;23.28
5938;DHT22;2994;51.220;4.412;2023-07-08T12:48:35;34.63;23.40
5938;DHT22;2994;51.220;4.412;2023-07-08T12:51:03;35.00;22.79
5938;DHT22;2994;51.220;4.412;2023-07-08T12:53:29;35.13;23.75
5938;DHT22;2994;51.220;4.412;2023-07-08T12:55:57;35.55;23.40
5938;DHT22;2994;51.220;4.412;2023-07-08T12:58:25;35.67;22.87
5938;DHT22;2994;51.220;4.412;2023-07-08T13:00:53;35.77;22.79
5938;DHT22;2994;51.220;4.412;2023-07-08T13:03:22;35.56;22.23
5938;DHT22;2994;51.220;4.412;2023-07-08T13:05:50;35.55;22.72
5938;DHT22;2994;51.220;4.412;2023-07-08T13:08:21;35.25;22.90
5938;DHT22;2994;51.220;4.412;2023-07-08T13:10:49;35.27;22.94
5938;DHT22;2994;51.220;4.412;2023-07-08T13:13:22;35.25;24.01
5938;DHT22;2994;51.220;4.412;2023-07-08T13:15:48;35.53;23.25
5938;DHT22;2994;51.220;4.412;2023-07-08T13:18:35;35.57;23.01
5938;DHT22;2994;51.220;4.412;2023-07-08T13:21:02;35.14;24.60
5938;DHT22;2994;51.220;4.412;2023-07-08T13:23:28;35.65;22.95
5938;DHT22;2994;51.220;4.412;2023-07-08T13:25:55;35.85;23.79
5938;DHT22;2994;51.220;4.412;2023-07-08T13:28:29;35.77;24.14
5938;DHT22;2994;51.220;4.412;2023-07-08T13:31:00;35.96;23.43
5938;DHT22;2994;51.220;4.412;2023-07-08T13:33:34;35.98;23.59
5938;DHT22;2994;51.220;4.412;2023-07-08T13:36:04;36.47;22.94
5938;DHT22;2994;51.220;4.412;2023-07-08T13:38:34;36.58;23.74
5938;DHT22;2994;51.220;4.412;2023-07-08T13:41:03;36.48;24.08
5938;DHT22;2994;51.220;4.412;2023-07-08T13:43:34;36.19;22.80
5938;DHT22;2994;51.220;4.412;2023-07-08T13:46:00;36.55;24.88
5938;DHT22;2994;51.220;4.412;2023-07-08T13:48:38;37.08;22.98
5938;DHT22;2994;51.220;4.412;2023-07-08T13:51:15;37.20;23.01
5938;DHT22;2994;51.220;4.412;2023-07-08T13:53:49;37.54;22.01
5938;DHT22;2994;51.220;4.412;2023-07-08T13:56:21;37.73;21.69
5938;DHT22;2994;51.220;4.412;2023-07-08T13:58:50;37.57;22.82
5938;DHT22;2994;51.220;4.412;2023-07-08T14:01:19;37.61;23.72
5938;DHT22;2994;51.220;4.412;2023-07-08T14:03:45;37.12;24.88
5938;DHT22;2994;51.220;4.412;2023-07-08T14:06:15;36.41;26.36
5938;DHT22;2994;51.220;4.412;2023-07-08T14:08:41;36.12;27.09
5938;DHT22;2994;51.220;4.412;2023-07-08T14:11:07;35.86;27.62
5938;DHT22;2994;51.220;4.412;2023-07-08T14:13:33;35.58;28.21
5938;DHT22;2994;51.220;4.412;2023-07-08T14:15:59;35.36;28.30
5938;DHT22;2994;51.220;4.412;2023-07-08T14:18:25;35.13;28.16
5938;DHT22;2994;51.220;4.412;2023-07-08T14:20:51;34.85;28.44
5938;DHT22;2994;51.220;4.412;2023-07-08T14:23:17;34.51;28.61
5938;DHT22;2994;51.220;4.412;2023-07-08T14:25:44;34.36;28.71
5938;DHT22;2994;51.220;4.412;2023-07-08T14:28:09;34.09;29.03
5938;DHT22;2994;51.220;4.412;2023-07-08T14:30:41;34.14;29.07
5938;DHT22;2994;51.220;4.412;2023-07-08T14:33:10;33.78;29.49
5938;DHT22;2994;51.220;4.412;2023-07-08T14:35:36;33.56;29.76
5938;DHT22;2994;51.220;4.412;2023-07-08T14:38:01;33.36;30.16
5938;DHT22;2994;51.220;4.412;2023-07-08T14:40:35;33.22;30.58
5938;DHT22;2994;51.220;4.412;2023-07-08T14:43:09;33.09;30.68
5938;DHT22;2994;51.220;4.412;2023-07-08T14:45:41;33.26;30.61
5938;DHT22;2994;51.220;4.412;2023-07-08T14:48:10;33.36;29.63
5938;DHT22;2994;51.220;4.412;2023-07-08T14:50:37;33.42;29.15
5938;DHT22;2994;51.220;4.412;2023-07-08T14:53:02;33.49;28.89
5938;DHT22;2994;51.220;4.412;2023-07-08T14:55:28;33.50;29.35
5938;DHT22;2994;51.220;4.412;2023-07-08T14:57:54;33.83;29.25
5938;DHT22;2994;51.220;4.412;2023-07-08T15:00:21;33.58;29.68
5938;DHT22;2994;51.220;4.412;2023-07-08T15:02:47;33.43;29.69
5938;DHT22;2994;51.220;4.412;2023-07-08T15:05:24;33.26;29.81
5938;DHT22;2994;51.220;4.412;2023-07-08T15:07:53;33.20;30.09
5938;DHT22;2994;51.220;4.412;2023-07-08T15:10:20;33.20;29.39
5938;DHT22;2994;51.220;4.412;2023-07-08T15:12:47;33.25;29.22
5938;DHT22;2994;51.220;4.412;2023-07-08T15:15:15;33.70;28.25
5938;DHT22;2994;51.220;4.412;2023-07-08T15:17:41;33.78;27.93
5938;DHT22;2994;51.220;4.412;2023-07-08T15:20:10;34.49;26.45
5938;DHT22;2994;51.220;4.412;2023-07-08T15:22:38;35.25;25.91
5938;DHT22;2994;51.220;4.412;2023-07-08T15:25:04;36.16;25.00
5938;DHT22;2994;51.220;4.412;2023-07-08T15:27:30;37.46;23.61
5938;DHT22;2994;51.220;4.412;2023-07-08T15:29:55;41.88;19.15
5938;DHT22;2994;51.220;4.412;2023-07-08T15:32:21;46.08;15.97
5938;DHT22;2994;51.220;4.412;2023-07-08T15:34:46;48.89;13.25
5938;DHT22;2994;51.220;4.412;2023-07-08T15:37:11;51.18;12.07
5938;DHT22;2994;51.220;4.412;2023-07-08T15:39:37;53.11;10.64
5938;DHT22;2994;51.220;4.412;2023-07-08T15:42:03;54.35;9.11
5938;DHT22;2994;51.220;4.412;2023-07-08T15:44:29;55.71;7.76
5938;DHT22;2994;51.220;4.412;2023-07-08T15:46:54;53.87;6.41
5938;DHT22;2994;51.220;4.412;2023-07-08T15:49:22;53.03;9.67
5938;DHT22;2994;51.220;4.412;2023-07-08T15:51:49;55.51;8.08
5938;DHT22;2994;51.220;4.412;2023-07-08T15:54:15;56.28;7.69
5938;DHT22;2994;51.220;4.412;2023-07-08T15:56:41;56.33;7.34
5938;DHT22;2994;51.220;4.412;2023-07-08T15:59:11;56.44;6.30
5938;DHT22;2994;51.220;4.412;2023-07-08T16:01:39;53.30;7.54
5938;DHT22;2994;51.220;4.412;2023-07-08T16:04:07;51.07;9.00
5938;DHT22;2994;51.220;4.412;2023-07-08T16:06:33;48.99;10.77
5938;DHT22;2994;51.220;4.412;2023-07-08T16:08:59;47.34;12.33
5938;DHT22;2994;51.220;4.412;2023-07-08T16:11:29;45.94;13.91
5938;DHT22;2994;51.220;4.412;2023-07-08T16:13:55;44.69;15.38
5938;DHT22;2994;51.220;4.412;2023-07-08T16:16:22;43.62;16.42
5938;DHT22;2994;51.220;4.412;2023-07-08T16:18:48;42.72;17.67
5938;DHT22;2994;51.220;4.412;2023-07-08T16:21:13;41.89;18.47
5938;DHT22;2994;51.220;4.412;2023-07-08T16:23:39;41.18;19.16
5938;DHT22;2994;51.220;4.412;2023-07-08T16:26:11;40.54;20.04
5938;DHT22;2994;51.220;4.412;2023-07-08T16:28:44;39.98;21.08
5938;DHT22;2994;51.220;4.412;2023-07-08T16:31:17;39.48;22.14
5938;DHT22;2994;51.220;4.412;2023-07-08T16:33:44;38.94;22.55
5938;DHT22;2994;51.220;4.412;2023-07-08T16:36:14;38.53;23.28
5938;DHT22;2994;51.220;4.412;2023-07-08T16:38:40;38.14;24.31
5938;DHT22;2994;51.220;4.412;2023-07-08T16:41:16;37.74;25.12
5938;DHT22;2994;51.220;4.412;2023-07-08T16:43:42;37.40;25.20
5938;DHT22;2994;51.220;4.412;2023-07-08T16:46:09;37.08;25.42
5938;DHT22;2994;51.220;4.412;2023-07-08T16:48:35;36.77;24.90
5938;DHT22;2994;51.220;4.412;2023-07-08T16:51:01;36.54;25.86
5938;DHT22;2994;51.220;4.412;2023-07-08T16:53:26;36.28;24.50
5938;DHT22;2994;51.220;4.412;2023-07-08T16:55:52;36.10;24.68
5938;DHT22;2994;51.220;4.412;2023-07-08T16:58:17;35.93;24.83
5938;DHT22;2994;51.220;4.412;2023-07-08T17:00:44;35.75;25.52
5938;DHT22;2994;51.220;4.412;2023-07-08T17:03:15;35.53;25.65